Time;durP1;ratioP1;P1;durP2;ratioP2;P2;SDS_P1;SDS_P2;PMS_P1;PMS_P2;Temp;Humidity;BMP_temperature;BMP_pressure;BME280_temperature;BME280_humidity;BME280_pressure;Samples;Min_cycle;Max_cycle;Signal;HPM_P1;HPM_P2
2023/09/08 00:01:59;;;;;;;20.03;18.23;;;;;;;18.76;81.14;93399.72;5070910;28;20260;-83
2023/09/08 00:04:25;;;;;;;17.70;16.10;;;;;;;18.68;79.34;93402.34;5071225;28;20218;-84
2023/09/08 00:06:50;;;;;;;17.20;15.80;;;;;;;18.77;77.75;93403.91;5070684;28;20219;-82
2023/09/08 00:09:16;;;;;;;19.43;16.17;;;;;;;18.79;77.58;93395.66;5071281;28;20220;-79
2023/09/08 00:11:41;;;;;;;16.20;14.73;;;;;;;18.68;76.60;93394.41;5070477;28;20544;-83
2023/09/08 00:14:07;;;;;;;16.10;14.27;;;;;;;18.66;76.29;93393.97;5070716;28;20191;-82
2023/09/08 00:16:32;;;;;;;16.77;15.00;;;;;;;18.56;76.23;93375.72;5056572;28;20245;-84
2023/09/08 00:18:58;;;;;;;15.60;14.30;;;;;;;18.50;75.35;93379.59;5050937;28;20240;-82
2023/09/08 00:21:27;;;;;;;14.57;13.57;;;;;;;18.58;76.12;93384.13;5063292;28;20224;-80
2023/09/08 00:23:53;;;;;;;14.23;13.10;;;;;;;18.53;75.63;93385.06;5071155;28;20267;-83
2023/09/08 00:26:19;;;;;;;12.90;11.80;;;;;;;18.47;74.13;93383.66;5070293;28;20234;-84
2023/09/08 00:28:44;;;;;;;12.40;11.13;;;;;;;18.47;74.11;93378.38;5070239;28;20237;-83
2023/09/08 00:31:09;;;;;;;13.50;12.03;;;;;;;18.44;73.08;93371.03;5066307;28;20218;-82
2023/09/08 00:33:35;;;;;;;14.30;13.10;;;;;;;18.48;72.48;93376.47;5068989;28;20181;-83
2023/09/08 00:36:00;;;;;;;12.03;11.13;;;;;;;18.61;71.35;93370.28;5069809;28;20290;-83
2023/09/08 00:38:26;;;;;;;12.80;11.80;;;;;;;18.58;71.61;93369.06;5070343;28;20198;-84
2023/09/08 00:41:00;;;;;;;12.70;11.77;;;;;;;18.68;71.53;93373.25;5069969;28;20214;-83
2023/09/08 00:43:26;;;;;;;11.27;10.40;;;;;;;18.72;70.95;93380.25;5070451;28;20185;-84
2023/09/08 00:45:53;;;;;;;10.83;10.10;;;;;;;18.68;70.94;93370.59;5069353;28;20206;-84
2023/09/08 00:48:19;;;;;;;11.87;11.03;;;;;;;18.66;71.41;93372.78;5068770;28;20281;-83
2023/09/08 00:50:44;;;;;;;13.00;11.80;;;;;;;18.62;71.70;93374.47;5069633;28;20214;-78
2023/09/08 00:53:10;;;;;;;12.03;11.13;;;;;;;18.60;71.44;93366.84;5070400;28;20175;-83
2023/09/08 00:55:35;;;;;;;11.13;10.13;;;;;;;18.61;71.91;93363.16;5069497;28;20225;-82
2023/09/08 00:58:02;;;;;;;11.87;11.07;;;;;;;18.64;71.76;93372.31;5070310;28;20203;-83
2023/09/08 01:00:27;;;;;;;12.47;11.37;;;;;;;18.72;72.47;93366.25;5070255;28;20218;-84
2023/09/08 01:02:53;;;;;;;12.17;11.07;;;;;;;18.65;72.08;93358.78;5070408;28;20192;-82
2023/09/08 01:05:20;;;;;;;11.97;11.07;;;;;;;18.77;72.51;93360.84;5066323;28;20236;-79
2023/09/08 01:07:47;;;;;;;11.67;10.83;;;;;;;18.75;72.60;93363.00;5050551;28;20194;-83
2023/09/08 01:10:13;;;;;;;11.33;10.23;;;;;;;18.72;72.67;93358.34;5049776;28;20228;-83
2023/09/08 01:12:39;;;;;;;10.93;10.13;;;;;;;18.80;72.36;93362.84;5049760;28;20180;-82
2023/09/08 01:15:06;;;;;;;11.80;10.80;;;;;;;18.64;72.92;93354.59;5048007;28;20680;-83
2023/09/08 01:17:32;;;;;;;12.13;11.07;;;;;;;18.65;72.72;93360.63;5070195;28;20201;-83
2023/09/08 01:20:02;;;;;;;12.63;11.63;;;;;;;18.70;72.80;93360.50;5068010;28;20187;-82
2023/09/08 01:22:54;;;;;;;11.07;10.17;;;;;;;18.71;73.11;93362.84;5059213;28;20195;-83
2023/09/08 01:25:25;;;;;;;11.40;10.33;;;;;;;18.79;73.08;93370.00;5065337;28;20235;-84
2023/09/08 01:27:53;;;;;;;11.73;10.53;;;;;;;18.68;73.20;93352.09;5050070;28;20188;-84
2023/09/08 01:30:21;;;;;;;11.27;10.50;;;;;;;18.80;72.91;93365.50;5051098;28;20223;-84
2023/09/08 01:32:46;;;;;;;11.80;10.73;;;;;;;18.66;73.72;93349.00;5069847;28;20189;-84
2023/09/08 01:35:12;;;;;;;10.43;9.63;;;;;;;18.64;73.32;93351.16;5058892;28;20182;-80
2023/09/08 01:37:48;;;;;;;12.07;10.87;;;;;;;18.67;73.80;93347.91;5069349;28;20196;-84
2023/09/08 01:40:14;;;;;;;12.27;10.57;;;;;;;18.91;72.66;93356.94;5069166;28;20222;-85
2023/09/08 01:42:41;;;;;;;11.67;10.80;;;;;;;18.77;73.61;93366.13;5068406;28;20190;-84
2023/09/08 01:45:07;;;;;;;11.43;10.63;;;;;;;18.73;74.38;93365.16;5067011;28;20193;-84
2023/09/08 01:47:33;;;;;;;11.83;10.97;;;;;;;18.71;73.97;93362.84;5048177;28;20351;-84
2023/09/08 01:49:59;;;;;;;11.77;10.43;;;;;;;18.63;74.30;93346.97;5049076;28;20219;-83
2023/09/08 01:52:25;;;;;;;11.43;10.53;;;;;;;18.69;74.61;93357.06;5049660;28;20278;-83
2023/09/08 01:54:50;;;;;;;10.97;10.07;;;;;;;18.55;75.11;93355.66;5049308;28;20176;-83
2023/09/08 01:57:16;;;;;;;11.87;10.80;;;;;;;18.63;75.15;93350.38;5068429;28;20243;-83
2023/09/08 01:59:41;;;;;;;12.10;11.07;;;;;;;18.65;75.67;93344.78;5069238;28;20193;-83
2023/09/08 02:02:06;;;;;;;12.77;11.57;;;;;;;18.59;76.76;93353.94;5069946;28;20282;-84
2023/09/08 02:04:32;;;;;;;12.13;11.23;;;;;;;18.70;76.40;93350.69;5069623;28;20183;-83
2023/09/08 02:06:58;;;;;;;11.17;10.20;;;;;;;18.57;75.46;93304.00;5068868;28;20231;-82
2023/09/08 02:09:36;;;;;;;12.23;11.23;;;;;;;18.84;76.11;93355.84;5069257;28;20215;-83
2023/09/08 02:12:02;;;;;;;11.93;10.97;;;;;;;18.80;75.73;93344.34;5065077;28;20235;-79
2023/09/08 02:14:28;;;;;;;12.07;11.07;;;;;;;18.84;76.14;93351.34;5069606;28;20181;-84
2023/09/08 02:16:54;;;;;;;11.60;10.50;;;;;;;18.89;76.36;93361.00;5068557;28;20222;-83
2023/09/08 02:19:19;;;;;;;12.23;11.37;;;;;;;18.85;76.92;93338.88;5071875;28;20175;-84
2023/09/08 02:21:45;;;;;;;12.80;11.63;;;;;;;18.96;77.04;93356.00;5068233;28;20221;-81
2023/09/08 02:24:11;;;;;;;12.73;10.97;;;;;;;18.83;78.20;93335.78;5068594;28;20182;-83
2023/09/08 02:26:41;;;;;;;12.43;11.53;;;;;;;18.78;78.33;93338.56;5068037;28;20221;-83
2023/09/08 02:29:07;;;;;;;12.43;11.00;;;;;;;18.83;78.02;93335.78;5069281;28;20203;-83
2023/09/08 02:31:33;;;;;;;13.13;11.93;;;;;;;18.75;77.90;93341.84;5068743;28;20246;-83
2023/09/08 02:33:58;;;;;;;11.50;10.60;;;;;;;18.78;78.01;93336.72;5064667;28;20188;-83
2023/09/08 02:36:26;;;;;;;12.43;11.50;;;;;;;18.72;78.68;93323.94;5067628;28;20245;-83
2023/09/08 02:38:55;;;;;;;12.70;11.60;;;;;;;18.64;79.28;93324.72;5068950;28;20190;-83
2023/09/08 02:41:22;;;;;;;12.60;11.70;;;;;;;18.76;78.23;93327.50;5068177;28;20238;-84
2023/09/08 02:43:48;;;;;;;11.87;10.97;;;;;;;18.60;78.41;93318.50;5068627;28;20188;-82
2023/09/08 02:46:13;;;;;;;13.90;13.00;;;;;;;18.63;78.61;93323.16;5068086;28;20227;-82
2023/09/08 02:48:39;;;;;;;13.20;12.10;;;;;;;18.57;78.14;93313.78;5068393;28;20235;-84
2023/09/08 02:51:04;;;;;;;14.33;11.77;;;;;;;18.64;77.80;93324.72;5068262;28;20228;-84
2023/09/08 02:53:30;;;;;;;13.97;11.17;;;;;;;18.49;79.06;93322.53;5068732;28;20196;-84
2023/09/08 02:55:56;;;;;;;12.57;11.37;;;;;;;18.48;79.36;93321.72;5059508;28;20293;-83
2023/09/08 02:58:22;;;;;;;12.43;11.37;;;;;;;18.58;77.66;93325.94;5048701;28;20205;-84
2023/09/08 03:00:47;;;;;;;11.67;10.47;;;;;;;18.62;77.76;93326.88;5048211;28;20218;-84
2023/09/08 03:03:12;;;;;;;12.50;11.60;;;;;;;18.56;78.87;93306.97;5049364;28;20192;-84
2023/09/08 03:05:38;;;;;;;12.53;11.43;;;;;;;18.51;79.77;93325.63;5048051;28;20223;-83
2023/09/08 03:08:05;;;;;;;15.80;11.47;;;;;;;18.19;82.55;93331.28;5048224;28;20256;-83
2023/09/08 03:10:33;;;;;;;13.23;12.23;;;;;;;17.97;84.02;93328.72;5051872;28;20308;-84
2023/09/08 03:12:59;;;;;;;12.33;11.37;;;;;;;17.79;85.24;93330.50;5052986;28;20242;-84
2023/09/08 03:15:27;;;;;;;13.63;12.43;;;;;;;17.59;86.49;93317.84;5055731;28;20226;-84
2023/09/08 03:17:54;;;;;;;13.37;12.17;;;;;;;17.51;87.62;93329.91;5072073;28;20196;-79
2023/09/08 03:20:19;;;;;;;12.57;11.47;;;;;;;17.47;88.50;93328.97;5071722;28;20226;-84
2023/09/08 03:22:45;;;;;;;12.47;11.30;;;;;;;17.42;89.21;93331.72;5072228;28;20186;-83
2023/09/08 03:25:10;;;;;;;14.17;13.07;;;;;;;17.35;89.71;93333.97;5070940;28;20217;-84
2023/09/08 03:27:35;;;;;;;14.17;12.97;;;;;;;17.30;90.51;93334.13;5071794;28;20190;-84
2023/09/08 03:30:01;;;;;;;14.30;12.90;;;;;;;17.19;91.62;93332.03;5070677;28;20216;-81
2023/09/08 03:32:28;;;;;;;14.37;13.17;;;;;;;17.21;91.52;93330.63;5072780;28;20187;-81
2023/09/08 03:34:54;;;;;;;13.67;12.47;;;;;;;17.23;91.53;93338.28;5071570;28;20197;-79
2023/09/08 03:37:19;;;;;;;12.83;11.83;;;;;;;17.14;91.71;93334.78;5071954;28;20215;-84
2023/09/08 03:39:44;;;;;;;14.20;12.93;;;;;;;17.03;92.61;93334.25;5071274;28;20182;-79
2023/09/08 03:42:10;;;;;;;14.40;13.20;;;;;;;17.02;93.19;93343.25;5071339;28;20256;-83
2023/09/08 03:44:35;;;;;;;26.87;14.63;;;;;;;17.03;94.03;93349.28;5071399;28;20185;-83
2023/09/08 03:47:02;;;;;;;14.47;13.00;;;;;;;16.95;94.96;93344.75;5053509;28;20878;-84
2023/09/08 03:49:27;;;;;;;15.73;13.80;;;;;;;16.92;95.42;93346.13;5051824;28;20210;-83
2023/09/08 03:51:53;;;;;;;15.27;13.50;;;;;;;16.97;96.23;93339.94;5067962;28;20447;-83
2023/09/08 03:54:18;;;;;;;14.93;13.53;;;;;;;16.91;97.38;93336.66;5070454;28;20246;-84
2023/09/08 03:56:44;;;;;;;15.50;13.90;;;;;;;16.71;98.81;93321.28;5070947;28;20225;-84
2023/09/08 03:59:09;;;;;;;15.30;14.00;;;;;;;16.79;99.70;93333.78;5071569;28;20241;-83
2023/09/08 04:01:34;;;;;;;15.27;14.03;;;;;;;16.83;99.98;93334.72;5056019;28;20313;-84
2023/09/08 04:04:00;;;;;;;16.27;14.60;;;;;;;16.94;100.00;93337.91;5051941;28;20190;-83
2023/09/08 04:06:25;;;;;;;16.37;14.17;;;;;;;16.99;99.85;93337.78;5063539;28;20236;-79
2023/09/08 04:08:50;;;;;;;20.10;14.90;;;;;;;16.87;100.00;93333.03;5069776;28;20213;-83
2023/09/08 04:11:16;;;;;;;13.93;12.73;;;;;;;17.01;100.00;93340.91;5071386;28;20288;-84
2023/09/08 04:13:41;;;;;;;16.03;14.33;;;;;;;17.07;99.82;93339.72;5071342;28;20223;-83
2023/09/08 04:16:06;;;;;;;14.93;13.63;;;;;;;17.01;99.56;93325.84;5060595;28;20230;-83
2023/09/08 04:18:32;;;;;;;15.87;14.40;;;;;;;17.04;99.79;93340.31;5051026;28;20186;-85
2023/09/08 04:20:57;;;;;;;15.80;14.30;;;;;;;17.10;99.72;93345.19;5059521;28;20225;-83
2023/09/08 04:23:22;;;;;;;15.67;14.27;;;;;;;17.14;99.87;93338.22;5070708;28;20241;-83
2023/09/08 04:25:48;;;;;;;15.00;13.73;;;;;;;17.20;99.51;93344.91;5070550;28;20224;-84
2023/09/08 04:28:13;;;;;;;16.23;14.70;;;;;;;17.07;99.53;93324.69;5070571;28;20190;-82
2023/09/08 04:30:39;;;;;;;16.17;14.47;;;;;;;17.07;99.20;93329.16;5069119;28;20263;-84
2023/09/08 04:33:04;;;;;;;15.23;13.70;;;;;;;17.09;98.92;93342.84;5071095;28;21453;-84
2023/09/08 04:35:29;;;;;;;15.00;13.57;;;;;;;17.20;97.91;93344.91;5070281;28;20228;-85
2023/09/08 04:37:55;;;;;;;16.03;14.77;;;;;;;17.13;97.46;93344.56;5070372;28;20260;-79
2023/09/08 04:40:20;;;;;;;14.90;12.70;;;;;;;17.02;95.64;93348.53;5070284;28;20259;-85
2023/09/08 04:42:46;;;;;;;14.63;13.33;;;;;;;17.33;94.94;93357.28;5069843;28;20282;-84
2023/09/08 04:45:11;;;;;;;14.43;13.30;;;;;;;17.19;91.93;93347.88;5070310;28;20194;-84
2023/09/08 04:47:37;;;;;;;14.37;12.73;;;;;;;17.47;90.72;93350.09;5069916;28;20739;-84
2023/09/08 04:50:03;;;;;;;13.30;12.30;;;;;;;17.68;89.65;93360.94;5070042;28;20298;-79
2023/09/08 04:52:28;;;;;;;14.57;13.17;;;;;;;17.63;89.60;93360.28;5069609;28;20196;-85
2023/09/08 04:54:54;;;;;;;13.63;12.30;;;;;;;17.75;87.78;93357.84;5069839;28;20173;-81
2023/09/08 04:57:19;;;;;;;12.70;11.70;;;;;;;17.79;86.09;93356.16;5050230;28;20186;-85
2023/09/08 04:59:45;;;;;;;12.93;11.73;;;;;;;17.95;85.77;93354.66;5049612;28;20193;-84
2023/09/08 05:02:10;;;;;;;13.37;12.10;;;;;;;18.00;85.40;93359.81;5068510;28;20217;-84
2023/09/08 05:04:35;;;;;;;12.23;11.13;;;;;;;18.20;83.30;93361.91;5059866;28;20174;-85
2023/09/08 05:07:01;;;;;;;12.50;11.37;;;;;;;18.27;83.63;93363.00;5069264;28;20210;-83
2023/09/08 05:09:26;;;;;;;12.90;11.73;;;;;;;18.26;84.75;93365.97;5056920;28;20202;-83
2023/09/08 05:11:51;;;;;;;12.47;11.27;;;;;;;18.30;82.31;93345.78;5069635;28;20339;-84
2023/09/08 05:14:17;;;;;;;15.67;11.80;;;;;;;18.45;82.27;93346.16;5070127;28;20192;-84
2023/09/08 05:16:46;;;;;;;11.97;11.07;;;;;;;18.52;82.75;93364.22;5069428;28;20224;-84
2023/09/08 05:19:13;;;;;;;12.23;11.23;;;;;;;18.38;83.01;93355.63;5059105;28;20205;-85
2023/09/08 05:21:39;;;;;;;12.73;11.73;;;;;;;18.64;81.55;93359.88;5073195;28;20223;-83
2023/09/08 05:24:05;;;;;;;11.83;10.93;;;;;;;18.81;80.22;93351.19;5069639;28;20193;-84
2023/09/08 05:26:31;;;;;;;12.83;11.73;;;;;;;18.62;79.65;93364.69;5069021;28;20231;-81
2023/09/08 05:28:56;;;;;;;12.07;11.00;;;;;;;18.84;78.65;93369.06;5069629;28;20225;-83
2023/09/08 05:31:22;;;;;;;12.53;11.57;;;;;;;19.02;78.47;93366.13;5068459;28;20222;-82
2023/09/08 05:33:47;;;;;;;11.73;10.83;;;;;;;19.03;78.75;93374.84;5069861;28;20252;-82
2023/09/08 05:36:13;;;;;;;11.87;10.80;;;;;;;19.27;75.78;93363.78;5070070;28;20228;-84
2023/09/08 05:38:38;;;;;;;11.60;10.53;;;;;;;19.26;76.25;93365.66;5079475;28;20209;-84
2023/09/08 05:41:03;;;;;;;11.83;10.80;;;;;;;19.02;76.42;93373.28;5067711;28;20230;-83
2023/09/08 05:43:29;;;;;;;11.93;10.93;;;;;;;19.31;73.95;93376.13;5069956;28;20194;-83
2023/09/08 05:45:54;;;;;;;12.67;11.37;;;;;;;19.47;73.73;93373.75;5068858;28;20242;-82
2023/09/08 05:48:19;;;;;;;11.23;10.43;;;;;;;19.47;71.99;93390.41;5069500;28;20214;-84
2023/09/08 05:50:46;;;;;;;11.77;10.70;;;;;;;19.66;70.90;93382.16;5068240;28;20601;-83
2023/09/08 05:53:11;;;;;;;13.40;10.13;;;;;;;19.71;70.95;93385.41;5069334;28;20195;-84
2023/09/08 05:55:37;;;;;;;11.67;10.77;;;;;;;19.82;69.14;93385.84;5061849;28;20239;-83
2023/09/08 05:58:02;;;;;;;11.33;10.23;;;;;;;19.90;69.69;93385.03;5049568;28;20239;-82
2023/09/08 06:00:27;;;;;;;10.83;10.03;;;;;;;19.98;67.70;93392.97;5049093;28;20290;-84
2023/09/08 06:02:53;;;;;;;11.17;10.27;;;;;;;19.96;68.93;93387.22;5049573;28;20232;-85
2023/09/08 06:05:18;;;;;;;10.40;9.70;;;;;;;20.00;67.66;93387.34;5052202;28;20314;-82
2023/09/08 06:07:44;;;;;;;10.83;10.03;;;;;;;20.20;67.74;93386.69;5069310;28;20188;-85
2023/09/08 06:10:09;;;;;;;10.90;10.18;;;;;;;20.32;66.86;93384.91;5069557;28;20207;-83
2023/09/08 06:12:35;;;;;;;11.47;10.37;;;;;;;20.37;67.73;93395.31;5068865;28;20269;-80
2023/09/08 06:15:03;;;;;;;10.63;9.83;;;;;;;20.33;67.55;93385.69;5067412;28;20204;-83
2023/09/08 06:17:28;;;;;;;11.17;10.20;;;;;;;20.23;66.08;93392.13;5057429;28;20198;-84
2023/09/08 06:19:53;;;;;;;12.15;9.68;;;;;;;20.59;63.80;93394.31;5068757;28;20183;-83
2023/09/08 06:22:19;;;;;;;9.80;9.10;;;;;;;20.67;62.58;93396.91;5069528;28;20188;-84
2023/09/08 06:24:44;;;;;;;10.02;9.32;;;;;;;20.83;62.77;93394.47;5068942;28;20201;-83
2023/09/08 06:27:11;;;;;;;10.27;9.27;;;;;;;20.89;62.09;93400.38;5069292;28;20236;-84
2023/09/08 06:29:36;;;;;;;10.73;9.80;;;;;;;20.73;64.90;93404.69;5068950;28;20231;-83
2023/09/08 06:32:02;;;;;;;10.37;9.63;;;;;;;20.92;62.79;93403.16;5068743;28;20785;-83
2023/09/08 06:34:27;;;;;;;10.90;10.10;;;;;;;20.96;62.23;93396.13;5069435;28;20195;-82
2023/09/08 06:36:53;;;;;;;9.73;9.13;;;;;;;21.19;61.26;93412.53;5053679;28;20232;-83
2023/09/08 06:39:18;;;;;;;10.02;9.15;;;;;;;21.25;61.71;93408.56;5048895;28;20202;-83
2023/09/08 06:41:43;;;;;;;9.75;9.15;;;;;;;21.37;60.13;93409.41;5048964;28;20217;-85
2023/09/08 06:44:09;;;;;;;11.68;8.80;;;;;;;21.26;59.04;93418.09;5052792;28;20192;-85
2023/09/08 06:46:34;;;;;;;11.80;10.05;;;;;;;21.20;60.45;93404.22;5052298;28;20255;-82
2023/09/08 06:49:00;;;;;;;12.07;9.32;;;;;;;21.16;60.00;93381.28;5052867;28;20228;-83
2023/09/08 06:51:25;;;;;;;10.13;9.13;;;;;;;21.32;60.95;93417.59;5052092;28;20217;-83
2023/09/08 06:53:57;;;;;;;9.60;8.95;;;;;;;21.46;59.75;93412.00;5052870;28;20241;-83
2023/09/08 06:56:23;;;;;;;10.48;9.65;;;;;;;21.66;60.37;93403.22;5064936;28;20235;-84
2023/09/08 06:58:49;;;;;;;11.10;9.77;;;;;;;21.90;59.88;93427.25;5072279;28;20188;-83
2023/09/08 07:01:14;;;;;;;9.60;9.00;;;;;;;22.09;59.34;93409.69;5060276;28;20232;-83
2023/09/08 07:03:39;;;;;;;10.52;9.73;;;;;;;22.23;58.83;93412.81;5052546;28;20193;-84
2023/09/08 07:06:05;;;;;;;11.77;10.77;;;;;;;22.16;58.31;93411.81;5051842;28;20787;-84
2023/09/08 07:08:30;;;;;;;11.38;10.40;;;;;;;22.38;58.21;93419.38;5051535;28;20216;-84
2023/09/08 07:10:55;;;;;;;10.75;9.98;;;;;;;22.39;57.82;93415.63;5060911;28;20222;-80
2023/09/08 07:13:21;;;;;;;10.07;9.43;;;;;;;22.37;58.05;93420.47;5072446;28;20860;-84
2023/09/08 07:15:46;;;;;;;9.88;9.18;;;;;;;22.53;56.07;93428.63;5071813;28;20219;-83
2023/09/08 07:18:12;;;;;;;10.63;8.80;;;;;;;22.38;56.91;93424.72;5072140;28;20278;-84
2023/09/08 07:20:37;;;;;;;10.82;10.07;;;;;;;22.68;54.19;93420.75;5071616;28;20226;-84
2023/09/08 07:23:02;;;;;;;10.85;9.98;;;;;;;22.60;56.62;93418.97;5072322;28;20193;-79
2023/09/08 07:25:28;;;;;;;10.75;9.95;;;;;;;22.69;57.92;93417.00;5071212;28;20230;-84
2023/09/08 07:27:53;;;;;;;10.35;9.68;;;;;;;22.86;57.42;93415.97;5072061;28;20200;-83
2023/09/08 07:30:20;;;;;;;9.95;9.15;;;;;;;23.07;55.70;93406.72;5071086;28;20232;-83
2023/09/08 07:32:45;;;;;;;10.60;9.65;;;;;;;23.13;54.60;93416.03;5071651;28;20170;-83
2023/09/08 07:35:14;;;;;;;10.77;9.85;;;;;;;23.00;54.98;93411.09;5070861;28;20183;-83
2023/09/08 07:37:40;;;;;;;11.05;10.30;;;;;;;22.97;54.65;93412.53;5071565;28;20192;-83
2023/09/08 07:40:07;;;;;;;9.95;9.23;;;;;;;22.99;53.71;93415.63;5071104;28;20282;-79
2023/09/08 07:42:33;;;;;;;10.75;10.05;;;;;;;22.95;53.47;93413.97;5071850;28;20188;-84
2023/09/08 07:44:58;;;;;;;10.10;9.40;;;;;;;23.07;54.53;93417.41;5071213;28;20191;-83
2023/09/08 07:47:23;;;;;;;9.73;9.02;;;;;;;22.78;56.20;93424.84;5071297;28;20303;-83
2023/09/08 07:49:49;;;;;;;9.90;9.20;;;;;;;23.01;55.68;93415.28;5071419;28;20211;-81
2023/09/08 07:52:14;;;;;;;9.40;8.85;;;;;;;23.11;55.70;93412.19;5070975;28;21007;-84
2023/09/08 07:54:40;;;;;;;10.35;9.57;;;;;;;23.03;55.27;93410.41;5071003;28;20180;-83
2023/09/08 07:57:05;;;;;;;10.75;9.75;;;;;;;23.21;54.66;93417.03;5070988;28;20227;-83
2023/09/08 07:59:30;;;;;;;10.13;9.23;;;;;;;23.24;53.25;93411.03;5071574;28;20246;-84
2023/09/08 08:01:56;;;;;;;10.63;9.82;;;;;;;23.30;53.67;93407.81;5071065;28;20223;-84
2023/09/08 08:04:21;;;;;;;10.25;9.43;;;;;;;23.41;55.02;93403.56;5071873;28;20187;-83
2023/09/08 08:06:48;;;;;;;11.15;10.13;;;;;;;23.33;56.97;93407.16;5070843;28;20474;-79
2023/09/08 08:09:13;;;;;;;9.45;8.80;;;;;;;23.98;52.10;93413.16;5068796;28;20220;-84
2023/09/08 08:11:38;;;;;;;10.27;9.50;;;;;;;24.02;53.07;93395.34;5070446;28;20309;-87
2023/09/08 08:14:04;;;;;;;9.73;9.02;;;;;;;24.16;49.90;93395.69;5071363;28;20202;-83
2023/09/08 08:16:29;;;;;;;10.05;9.35;;;;;;;24.06;51.28;93409.56;5070272;28;20238;-85
2023/09/08 08:18:55;;;;;;;9.95;9.25;;;;;;;23.95;49.73;93403.91;5070763;28;20203;-81
2023/09/08 08:21:22;;;;;;;9.70;8.90;;;;;;;23.97;51.32;93407.03;5070717;28;20231;-85
2023/09/08 08:23:48;;;;;;;10.77;9.60;;;;;;;24.10;51.33;93405.06;5070335;28;20199;-83
2023/09/08 08:26:13;;;;;;;9.85;9.05;;;;;;;23.56;52.21;93408.19;5070853;28;20227;-81
2023/09/08 08:28:38;;;;;;;10.15;9.23;;;;;;;23.40;51.42;93402.03;5069862;28;20246;-83
2023/09/08 08:31:04;;;;;;;9.75;9.18;;;;;;;23.51;53.66;93402.31;5059148;28;20237;-84
2023/09/08 08:33:30;;;;;;;9.45;8.80;;;;;;;23.42;52.21;93391.03;5047313;28;20818;-83
2023/09/08 08:35:56;;;;;;;9.73;9.02;;;;;;;23.89;51.63;93409.84;5059541;28;20725;-84
2023/09/08 08:38:21;;;;;;;10.02;9.20;;;;;;;23.64;51.66;93403.84;5070619;28;20192;-82
2023/09/08 08:40:47;;;;;;;9.82;9.05;;;;;;;23.11;53.23;93402.31;5062751;28;20228;-79
2023/09/08 08:43:12;;;;;;;9.55;8.95;;;;;;;22.98;53.37;93406.09;5050931;28;20238;-82
2023/09/08 08:45:39;;;;;;;10.00;9.40;;;;;;;23.26;53.08;93398.97;5050422;28;20244;-84
2023/09/08 08:48:06;;;;;;;8.45;7.85;;;;;;;23.39;50.86;93402.38;5051668;28;20237;-84
2023/09/08 08:50:35;;;;;;;10.90;9.98;;;;;;;23.30;52.43;93386.50;5049814;28;20239;-84
2023/09/08 08:53:02;;;;;;;10.32;9.63;;;;;;;23.11;55.03;93388.97;5049196;28;20735;-84
2023/09/08 08:55:29;;;;;;;9.95;9.23;;;;;;;23.46;51.53;93387.34;5054811;28;20228;-84
2023/09/08 08:58:00;;;;;;;9.40;8.80;;;;;;;23.21;52.69;93385.84;5068798;28;20211;-82
2023/09/08 09:00:26;;;;;;;10.95;10.13;;;;;;;22.99;52.66;93399.66;5069559;28;20231;-83
2023/09/08 09:02:52;;;;;;;10.18;9.05;;;;;;;22.90;53.16;93380.34;5070341;28;20184;-84
2023/09/08 09:05:18;;;;;;;10.32;9.40;;;;;;;23.41;50.85;93384.91;5069337;28;20224;-84
2023/09/08 09:07:44;;;;;;;10.85;10.15;;;;;;;23.44;52.48;93386.91;5063888;28;20172;-85
2023/09/08 09:10:10;;;;;;;11.43;10.30;;;;;;;23.37;52.58;93391.25;5064038;28;20220;-82
2023/09/08 09:12:39;;;;;;;10.50;9.63;;;;;;;23.58;52.40;93394.53;5069502;28;20188;-84
2023/09/08 09:15:05;;;;;;;10.32;9.52;;;;;;;23.89;49.54;93389.28;5067567;28;20954;-84
2023/09/08 09:17:34;;;;;;;11.13;10.23;;;;;;;23.86;50.96;93389.19;5069769;28;20188;-83
2023/09/08 09:20:18;;;;;;;10.27;9.45;;;;;;;24.51;47.57;93385.91;5069352;28;20208;-84
2023/09/08 09:22:48;;;;;;;9.57;8.98;;;;;;;24.71;46.01;93383.00;5061509;28;20175;-84
2023/09/08 09:25:25;;;;;;;10.32;9.52;;;;;;;24.27;49.31;93386.06;5069202;28;20219;-85
2023/09/08 09:27:58;;;;;;;10.23;9.63;;;;;;;24.58;47.68;93394.06;5069461;28;20171;-83
2023/09/08 09:30:24;;;;;;;10.25;9.40;;;;;;;24.63;47.08;93385.81;5067385;28;20249;-84
2023/09/08 09:33:03;;;;;;;10.23;9.32;;;;;;;24.66;49.42;93380.59;5069518;28;20172;-84
2023/09/08 09:35:41;;;;;;;9.98;9.07;;;;;;;24.46;48.09;93380.81;5059438;28;20287;-83
2023/09/08 09:38:08;;;;;;;10.63;9.68;;;;;;;25.16;46.46;93383.25;5069612;28;20176;-84
2023/09/08 09:40:34;;;;;;;10.85;9.98;;;;;;;25.18;45.56;93390.91;5068455;28;20259;-79
2023/09/08 09:42:59;;;;;;;10.32;9.40;;;;;;;24.23;48.03;93379.88;5068388;28;20180;-84
2023/09/08 09:45:25;;;;;;;11.18;9.25;;;;;;;24.61;46.40;93382.69;5069204;28;20224;-83
2023/09/08 09:47:52;;;;;;;10.90;10.00;;;;;;;24.46;50.06;93375.47;5069497;28;20224;-84
2023/09/08 09:50:31;;;;;;;9.45;8.63;;;;;;;24.62;48.00;93371.66;5069074;28;20246;-83
2023/09/08 09:53:01;;;;;;;11.13;10.32;;;;;;;24.71;47.37;93376.88;5068334;28;20204;-84
2023/09/08 09:55:28;;;;;;;12.68;9.25;;;;;;;25.06;46.82;93373.09;5068770;28;20282;-82
2023/09/08 09:57:58;;;;;;;9.32;8.68;;;;;;;25.16;47.21;93377.91;5068884;28;20256;-83
2023/09/08 10:00:26;;;;;;;9.77;9.07;;;;;;;24.99;47.79;93372.94;5064638;28;20234;-84
2023/09/08 10:02:53;;;;;;;9.35;8.65;;;;;;;24.98;47.55;93375.97;5048213;28;20221;-84
2023/09/08 10:05:18;;;;;;;10.18;9.20;;;;;;;24.92;46.49;93363.97;5048843;28;20298;-83
2023/09/08 10:07:46;;;;;;;10.23;9.35;;;;;;;24.61;49.16;93361.34;5048975;28;20182;-84
2023/09/08 10:10:12;;;;;;;10.10;9.02;;;;;;;25.01;47.06;93354.66;5048754;28;20892;-84
2023/09/08 10:12:38;;;;;;;10.02;8.93;;;;;;;24.89;46.76;93356.66;5049065;28;20191;-84
2023/09/08 10:15:06;;;;;;;9.93;9.32;;;;;;;25.04;45.07;93347.84;5049441;28;20201;-84
2023/09/08 10:17:34;;;;;;;10.20;9.38;;;;;;;25.25;44.48;93357.06;5070624;28;20171;-84
2023/09/08 10:20:01;;;;;;;10.00;9.30;;;;;;;25.22;48.30;93359.66;5072068;28;20188;-82
2023/09/08 10:22:30;;;;;;;10.20;9.40;;;;;;;25.61;45.64;93347.09;5053336;28;20223;-84
2023/09/08 10:25:03;;;;;;;10.75;9.40;;;;;;;25.22;45.27;93348.97;5053725;28;20205;-83
2023/09/08 10:27:29;;;;;;;9.80;9.10;;;;;;;24.64;48.21;93339.31;5072502;28;20172;-83
2023/09/08 10:29:55;;;;;;;9.27;8.73;;;;;;;24.89;46.41;93336.06;5072809;28;20220;-82
2023/09/08 10:32:22;;;;;;;10.15;9.20;;;;;;;24.84;47.08;93336.34;5072586;28;20200;-84
2023/09/08 10:34:49;;;;;;;10.70;9.82;;;;;;;24.93;47.84;93352.19;5073206;28;20186;-83
2023/09/08 10:37:24;;;;;;;10.00;9.10;;;;;;;25.01;46.83;93343.94;5073342;28;20220;-84
2023/09/08 10:39:50;;;;;;;10.90;10.00;;;;;;;25.29;44.83;93341.13;5072478;28;20186;-82
2023/09/08 10:42:19;;;;;;;10.07;9.35;;;;;;;24.92;44.99;93345.28;5071620;28;20255;-83
2023/09/08 10:44:56;;;;;;;10.00;9.25;;;;;;;25.00;45.96;93342.41;5072863;28;20185;-82
2023/09/08 10:47:26;;;;;;;9.68;9.05;;;;;;;24.64;47.35;93334.72;5072358;28;20232;-83
2023/09/08 10:49:53;;;;;;;9.68;9.07;;;;;;;24.65;47.37;93338.16;5071959;28;20200;-84
2023/09/08 10:52:22;;;;;;;10.02;9.15;;;;;;;24.70;46.93;93337.94;5072987;28;20213;-83
2023/09/08 10:54:49;;;;;;;10.57;9.68;;;;;;;24.87;46.82;93334.88;5072941;28;20192;-79
2023/09/08 10:57:21;;;;;;;10.45;9.75;;;;;;;25.23;45.78;93337.19;5071816;28;20232;-84
2023/09/08 10:59:57;;;;;;;10.13;9.32;;;;;;;24.71;46.46;93334.13;5061561;28;20764;-79
2023/09/08 11:02:47;;;;;;;9.98;9.27;;;;;;;24.60;48.07;93333.09;5072060;28;20211;-82
2023/09/08 11:05:14;;;;;;;10.10;9.38;;;;;;;24.53;48.16;93344.38;5072444;28;20232;-84
2023/09/08 11:07:44;;;;;;;10.20;9.32;;;;;;;24.57;49.19;93339.13;5072614;28;20176;-84
2023/09/08 11:10:11;;;;;;;10.45;9.45;;;;;;;24.11;49.23;93332.69;5071789;28;20213;-85
2023/09/08 11:12:36;;;;;;;11.98;10.20;;;;;;;23.74;51.24;93334.78;5072163;28;20214;-84
2023/09/08 11:15:05;;;;;;;11.20;10.20;;;;;;;23.65;51.51;93331.50;5071816;28;20195;-84
2023/09/08 11:17:31;;;;;;;9.82;9.15;;;;;;;23.47;51.00;93327.56;5072753;28;20184;-85
2023/09/08 11:19:57;;;;;;;12.27;11.27;;;;;;;23.47;51.45;93322.25;5071532;28;20193;-84